Terminal Aerodrome Forecast
Issued by NWS

Current Version | Previous Version | Text Only | Print | Product List | Glossary Off
Versions: 1 2 3 4 5 6 7 8 9 10 11 12 13 14 15 16 17 18 19 20 21 22 23 24 25 26 27 28 29 30

000
FTUS41 KRNK 260520
TAFLWB
TAF
KLWB 260520Z 2606/2706 00000KT 3SM -SN OVC015
      TEMPO 2607/2609 1SM -SN BR OVC006
     FM261100 06003KT 4SM -SN OVC012
     FM261400 08004KT P6SM OVC020=

USA.gov is the U.S. government's official web portal to all federal, state and local government web resources and services.